Time;durP1;ratioP1;P1;durP2;ratioP2;P2;SDS_P1;SDS_P2;PMS_P1;PMS_P2;Temp;Humidity;BMP_temperature;BMP_pressure;BME280_temperature;BME280_humidity;BME280_pressure;Samples;Min_cycle;Max_cycle;Signal;HPM_P1;HPM_P2
2023/12/16 00:00:04;;;;;;;3.50;0.80;;;10.50;96.70;;;;;;6217250;23;20024;-70
2023/12/16 00:02:38;;;;;;;5.25;1.05;;;10.50;96.70;;;;;;6241887;23;20024;-70
2023/12/16 00:05:08;;;;;;;4.68;0.75;;;10.40;96.70;;;;;;6218152;23;20035;-70
2023/12/16 00:07:36;;;;;;;2.38;1.13;;;10.40;96.70;;;;;;6242698;23;20489;-70
2023/12/16 00:10:06;;;;;;;3.63;1.20;;;10.40;96.70;;;;;;6243022;23;20051;-69
2023/12/16 00:12:36;;;;;;;6.20;1.35;;;10.40;96.70;;;;;;6211687;23;20046;-70
2023/12/16 00:15:09;;;;;;;2.35;0.88;;;10.40;96.70;;;;;;6273531;22;20034;-70
2023/12/16 00:17:38;;;;;;;2.83;0.98;;;10.40;96.70;;;;;;6311520;22;20019;-70
2023/12/16 00:20:09;;;;;;;2.80;1.10;;;10.40;96.70;;;;;;6280416;22;20073;-70
2023/12/16 00:22:40;;;;;;;2.38;0.90;;;10.30;96.70;;;;;;6307493;22;20030;-70
2023/12/16 00:25:09;;;;;;;2.78;1.05;;;10.30;96.70;;;;;;6307443;22;20031;-69
2023/12/16 00:27:39;;;;;;;1.83;1.15;;;10.30;96.70;;;;;;6280131;22;20075;-70
2023/12/16 00:30:08;;;;;;;2.70;1.08;;;10.30;96.70;;;;;;6255735;22;20083;-70
2023/12/16 00:32:39;;;;;;;1.85;1.05;;;10.30;96.70;;;;;;6306596;22;20011;-69
2023/12/16 00:35:08;;;;;;;2.20;1.08;;;10.30;96.70;;;;;;6281440;22;20015;-69
2023/12/16 00:37:37;;;;;;;4.70;1.00;;;10.30;96.70;;;;;;6308082;22;20077;-70
2023/12/16 00:40:07;;;;;;;4.43;0.90;;;10.30;96.70;;;;;;6256091;22;20068;-70
2023/12/16 00:42:38;;;;;;;2.05;0.80;;;10.30;96.70;;;;;;6281965;22;20622;-70
2023/12/16 00:45:08;;;;;;;3.60;0.90;;;10.30;96.70;;;;;;6255692;22;20019;-70
2023/12/16 00:47:38;;;;;;;1.55;0.85;;;10.20;96.70;;;;;;6281443;22;20019;-70
2023/12/16 00:50:09;;;;;;;2.78;0.90;;;10.20;96.70;;;;;;6282695;22;20405;-70
2023/12/16 00:52:38;;;;;;;1.40;0.70;;;10.20;96.70;;;;;;6308802;22;20033;-70
2023/12/16 00:55:08;;;;;;;2.00;0.93;;;10.30;96.70;;;;;;6257138;22;20450;-70
2023/12/16 00:57:38;;;;;;;2.15;0.95;;;10.20;96.70;;;;;;6281831;22;20023;-69
2023/12/16 01:00:08;;;;;;;3.90;0.88;;;10.20;96.70;;;;;;6282065;22;20020;-67
2023/12/16 01:02:37;;;;;;;6.28;1.13;;;10.20;96.70;;;;;;6204411;22;20026;-69
2023/12/16 01:05:05;;;;;;;3.25;0.80;;;10.20;96.70;;;;;;6309139;22;20053;-69
2023/12/16 01:07:33;;;;;;;2.45;0.73;;;10.20;96.70;;;;;;6256371;22;20523;-69
2023/12/16 01:10:05;;;;;;;2.53;0.70;;;10.20;96.70;;;;;;6281629;22;20480;-69
2023/12/16 01:12:34;;;;;;;1.75;0.60;;;10.20;96.70;;;;;;6281578;22;20019;-69
2023/12/16 01:15:06;;;;;;;3.03;0.77;;;10.10;96.70;;;;;;6281727;22;20682;-70
2023/12/16 01:17:35;;;;;;;5.30;0.90;;;10.20;96.70;;;;;;6282225;22;20495;-70
2023/12/16 01:20:06;;;;;;;2.97;0.80;;;10.20;96.70;;;;;;6309463;22;20481;-70
2023/12/16 01:22:34;;;;;;;2.15;0.47;;;10.20;96.70;;;;;;6275941;22;20054;-70
2023/12/16 01:25:03;;;;;;;1.42;0.63;;;10.20;96.70;;;;;;6277825;22;20015;-70
2023/12/16 01:27:32;;;;;;;1.38;0.40;;;10.20;96.70;;;;;;6270785;22;20089;-71
2023/12/16 01:30:03;;;;;;;2.50;0.80;;;10.10;96.70;;;;;;6278172;22;20019;-70
2023/12/16 01:32:34;;;;;;;1.38;0.60;;;10.10;96.70;;;;;;6277129;22;20075;-70
2023/12/16 01:35:02;;;;;;;2.97;0.40;;;10.10;96.70;;;;;;6276805;22;20032;-70
2023/12/16 01:37:31;;;;;;;3.90;0.70;;;10.10;96.70;;;;;;6277833;22;20518;-70
2023/12/16 01:40:01;;;;;;;2.65;0.70;;;10.10;96.70;;;;;;6275440;22;20030;-71
2023/12/16 01:42:29;;;;;;;2.10;0.50;;;10.10;96.70;;;;;;6244049;22;20020;-70
2023/12/16 01:44:58;;;;;;;3.97;0.60;;;10.10;96.70;;;;;;6251594;22;20023;-70
2023/12/16 01:47:27;;;;;;;2.85;0.73;;;10.00;96.70;;;;;;6277048;22;20453;-70
2023/12/16 01:49:58;;;;;;;1.05;0.40;;;10.00;96.70;;;;;;6250253;22;20015;-70
2023/12/16 01:52:27;;;;;;;2.00;0.50;;;10.00;96.70;;;;;;6278519;22;20022;-70
2023/12/16 01:54:56;;;;;;;3.63;0.73;;;10.10;96.70;;;;;;6275168;22;20019;-70
2023/12/16 01:57:28;;;;;;;2.75;0.70;;;10.00;96.70;;;;;;6278148;22;20118;-70
2023/12/16 01:59:57;;;;;;;3.85;1.33;;;10.00;96.70;;;;;;6275502;22;20032;-70
2023/12/16 02:02:27;;;;;;;2.00;0.55;;;9.90;96.70;;;;;;6278181;22;20020;-70
2023/12/16 02:04:58;;;;;;;1.85;0.65;;;10.00;96.70;;;;;;6274641;22;20039;-70
2023/12/16 02:07:27;;;;;;;0.82;0.20;;;10.00;96.70;;;;;;6268868;22;20028;-70
2023/12/16 02:09:55;;;;;;;1.38;0.52;;;10.00;96.70;;;;;;6217891;23;20032;-70
2023/12/16 02:12:26;;;;;;;1.80;0.70;;;9.90;96.70;;;;;;6244385;23;20203;-70
2023/12/16 02:14:55;;;;;;;3.67;0.65;;;9.90;96.70;;;;;;6218662;23;20673;-70
2023/12/16 02:17:23;;;;;;;2.55;0.77;;;9.90;96.70;;;;;;6219196;23;20020;-71
2023/12/16 02:19:54;;;;;;;1.38;0.60;;;10.00;96.70;;;;;;6218810;23;20023;-69
2023/12/16 02:22:24;;;;;;;2.08;0.60;;;9.90;96.70;;;;;;6218045;23;20078;-70
2023/12/16 02:24:55;;;;;;;3.45;0.68;;;10.00;96.70;;;;;;6243951;23;20099;-70
2023/12/16 02:27:24;;;;;;;1.05;0.40;;;10.00;96.70;;;;;;6217620;23;20020;-69
2023/12/16 02:30:11;;;;;;;1.27;0.47;;;9.90;96.70;;;;;;6193542;23;20175;-69
2023/12/16 02:32:41;;;;;;;1.42;0.60;;;9.80;96.70;;;;;;6217926;23;20017;-69
2023/12/16 02:35:10;;;;;;;2.42;1.23;;;9.80;96.70;;;;;;6169032;23;20020;-70
2023/12/16 02:37:38;;;;;;;2.35;0.80;;;9.80;96.70;;;;;;6193631;23;20034;-70
2023/12/16 02:40:10;;;;;;;3.10;0.80;;;9.90;96.70;;;;;;6248257;22;20025;-70
2023/12/16 02:42:39;;;;;;;3.75;0.77;;;9.90;96.70;;;;;;6250431;22;20019;-70
2023/12/16 02:45:08;;;;;;;2.72;0.82;;;10.00;96.70;;;;;;6277526;22;20094;-70
2023/12/16 02:47:36;;;;;;;2.20;0.30;;;10.00;96.70;;;;;;6276849;22;20547;-70
2023/12/16 02:50:07;;;;;;;1.88;0.40;;;10.00;96.70;;;;;;6266711;22;20035;-70
2023/12/16 02:55:40;;;;;;;1.50;0.60;;;10.00;96.70;;;;;;6230052;22;20472;-65
2023/12/16 02:58:09;;;;;;;1.30;0.43;;;9.90;96.70;;;;;;6274007;22;20039;-65
2023/12/16 03:00:37;;;;;;;3.25;0.50;;;9.90;96.70;;;;;;6302007;22;20039;-66
2023/12/16 03:03:06;;;;;;;1.48;0.30;;;9.90;96.70;;;;;;6274763;22;20023;-65
2023/12/16 03:05:36;;;;;;;1.55;0.40;;;9.90;96.70;;;;;;6249719;22;20027;-65
2023/12/16 03:08:05;;;;;;;1.08;0.40;;;9.90;96.70;;;;;;6275345;22;20019;-65
2023/12/16 03:10:34;;;;;;;0.90;0.40;;;9.90;96.70;;;;;;6249744;22;20074;-64
2023/12/16 03:13:06;;;;;;;0.73;0.40;;;9.90;96.70;;;;;;6275047;22;20019;-65
2023/12/16 03:15:34;;;;;;;1.60;0.50;;;9.80;96.70;;;;;;6250412;22;20019;-65
2023/12/16 03:18:03;;;;;;;1.13;0.40;;;9.80;96.70;;;;;;6301925;22;20041;-65
2023/12/16 03:20:33;;;;;;;1.50;0.30;;;9.80;96.70;;;;;;6250197;22;20065;-65
2023/12/16 03:23:01;;;;;;;2.17;0.30;;;9.90;96.70;;;;;;6275163;22;20456;-65
2023/12/16 03:25:30;;;;;;;1.85;0.43;;;10.00;96.70;;;;;;6275015;22;20806;-65
2023/12/16 03:27:59;;;;;;;0.65;0.20;;;10.00;96.70;;;;;;6274985;22;20023;-65
2023/12/16 03:30:31;;;;;;;1.23;0.30;;;10.00;96.70;;;;;;6301895;22;20039;-65
2023/12/16 03:33:00;;;;;;;1.50;0.35;;;10.00;96.70;;;;;;6274585;22;20094;-65
2023/12/16 03:35:28;;;;;;;3.00;0.65;;;10.00;96.70;;;;;;6301735;22;20019;-65
2023/12/16 03:37:57;;;;;;;1.25;0.38;;;10.10;96.70;;;;;;6274906;22;20019;-65
2023/12/16 03:40:25;;;;;;;1.40;0.47;;;10.10;96.70;;;;;;6275289;22;20030;-64
2023/12/16 03:42:54;;;;;;;0.80;0.40;;;10.00;96.70;;;;;;6301952;22;20057;-65
2023/12/16 03:45:23;;;;;;;0.65;0.28;;;10.10;96.70;;;;;;6301601;22;20019;-65
2023/12/16 03:47:54;;;;;;;1.67;0.40;;;10.00;96.70;;;;;;6249265;22;20338;-64
2023/12/16 03:50:25;;;;;;;3.40;0.40;;;10.10;96.70;;;;;;6302119;22;20033;-65
2023/12/16 03:52:54;;;;;;;3.88;0.52;;;10.10;96.70;;;;;;6302014;22;20019;-65
2023/12/16 03:55:24;;;;;;;1.70;0.38;;;10.10;96.70;;;;;;6269433;22;20020;-65
2023/12/16 03:57:53;;;;;;;1.13;0.30;;;10.00;96.70;;;;;;6269120;22;20024;-65
2023/12/16 04:00:22;;;;;;;1.83;0.40;;;10.00;96.70;;;;;;6271464;22;20091;-65
2023/12/16 04:02:51;;;;;;;1.42;0.30;;;10.00;96.70;;;;;;6268502;22;20020;-65
2023/12/16 04:05:21;;;;;;;2.25;0.40;;;10.00;96.70;;;;;;6271495;22;20019;-65
2023/12/16 04:07:51;;;;;;;1.33;0.40;;;10.00;96.70;;;;;;6271687;22;20576;-65
2023/12/16 04:10:23;;;;;;;1.85;0.32;;;9.90;96.70;;;;;;6271128;22;20051;-65
2023/12/16 04:12:51;;;;;;;2.13;0.40;;;9.90;96.70;;;;;;6269894;22;20023;-65
2023/12/16 04:15:20;;;;;;;0.88;0.43;;;9.90;96.70;;;;;;6273330;22;20095;-65
2023/12/16 04:17:49;;;;;;;1.10;0.40;;;9.90;96.70;;;;;;6272442;22;20058;-65
2023/12/16 04:20:21;;;;;;;1.63;0.40;;;9.90;96.70;;;;;;6247112;22;20030;-65
2023/12/16 04:22:51;;;;;;;1.90;0.50;;;9.90;96.70;;;;;;6271934;22;20038;-65
2023/12/16 04:25:19;;;;;;;1.08;0.28;;;9.90;96.70;;;;;;6273156;22;20019;-65
2023/12/16 04:27:47;;;;;;;1.10;0.40;;;9.90;96.70;;;;;;6245964;22;20046;-65
2023/12/16 04:30:16;;;;;;;1.90;0.50;;;9.90;96.70;;;;;;6273141;22;20019;-66
2023/12/16 04:32:47;;;;;;;1.48;0.38;;;9.90;96.70;;;;;;6272825;22;20020;-65
2023/12/16 04:35:17;;;;;;;2.17;0.30;;;9.90;96.70;;;;;;6272910;22;20020;-65
2023/12/16 04:37:47;;;;;;;1.77;0.40;;;9.90;96.70;;;;;;6219736;22;20050;-65
2023/12/16 04:40:17;;;;;;;1.63;0.40;;;9.90;96.70;;;;;;6271451;22;20020;-66
2023/12/16 04:42:47;;;;;;;1.95;0.32;;;9.90;96.70;;;;;;6271213;22;20043;-65
2023/12/16 04:45:16;;;;;;;1.25;0.30;;;9.90;96.70;;;;;;6219740;22;20028;-65
2023/12/16 04:47:44;;;;;;;2.05;0.40;;;9.90;96.70;;;;;;6272446;22;20023;-65
2023/12/16 04:50:14;;;;;;;1.80;0.47;;;9.90;96.70;;;;;;6273020;22;20349;-65
2023/12/16 04:52:42;;;;;;;0.80;0.28;;;9.90;96.70;;;;;;6272644;22;20081;-65
2023/12/16 04:55:13;;;;;;;3.35;0.40;;;9.90;96.70;;;;;;6271171;22;20031;-65
2023/12/16 04:57:42;;;;;;;1.70;0.47;;;9.90;96.70;;;;;;6246178;22;20409;-65
2023/12/16 05:00:12;;;;;;;1.05;0.40;;;9.90;96.70;;;;;;6271333;22;20394;-65
2023/12/16 05:02:41;;;;;;;0.82;0.20;;;9.90;96.70;;;;;;6272424;22;20098;-65
2023/12/16 05:05:09;;;;;;;0.70;0.30;;;9.90;96.70;;;;;;6270715;22;20020;-65
2023/12/16 05:07:39;;;;;;;1.02;0.22;;;9.90;96.70;;;;;;6270924;22;20027;-65
2023/12/16 05:10:10;;;;;;;0.70;0.30;;;9.90;96.70;;;;;;6271015;22;20107;-65
2023/12/16 05:12:42;;;;;;;2.05;0.40;;;9.90;96.70;;;;;;6270528;22;20074;-66
2023/12/16 05:15:11;;;;;;;0.65;0.30;;;9.90;96.70;;;;;;6272148;22;20090;-65
2023/12/16 05:17:40;;;;;;;0.60;0.35;;;9.90;96.70;;;;;;6272215;22;20091;-65
2023/12/16 05:20:10;;;;;;;1.20;0.50;;;9.90;96.70;;;;;;6271172;22;20460;-65
2023/12/16 05:22:38;;;;;;;1.30;0.30;;;9.90;96.70;;;;;;6271090;22;20515;-65
2023/12/16 05:25:08;;;;;;;0.50;0.20;;;9.90;96.70;;;;;;6270863;22;20039;-65
2023/12/16 05:27:36;;;;;;;1.10;0.40;;;9.90;96.70;;;;;;6272523;22;20074;-65
2023/12/16 05:30:10;;;;;;;2.75;0.35;;;9.90;96.70;;;;;;6270715;22;20094;-65
2023/12/16 05:32:39;;;;;;;1.13;0.40;;;9.90;96.70;;;;;;6270755;22;20058;-65
2023/12/16 05:35:08;;;;;;;0.35;0.20;;;9.90;96.70;;;;;;6272904;22;20392;-65
2023/12/16 05:37:37;;;;;;;0.70;0.30;;;9.90;96.70;;;;;;6221374;22;20038;-65
2023/12/16 05:40:08;;;;;;;0.95;0.30;;;9.90;96.70;;;;;;6271448;22;20315;-66
2023/12/16 05:42:38;;;;;;;1.50;0.30;;;9.90;96.70;;;;;;6170940;22;20023;-65
2023/12/16 05:45:10;;;;;;;1.17;0.30;;;9.80;96.70;;;;;;6271546;22;20050;-65
2023/12/16 05:47:38;;;;;;;1.85;0.40;;;9.90;96.70;;;;;;6270889;22;20458;-66
2023/12/16 05:50:09;;;;;;;1.38;0.38;;;9.90;96.70;;;;;;6272898;22;20022;-65
2023/12/16 05:52:40;;;;;;;1.10;0.35;;;9.90;96.70;;;;;;6272396;22;20027;-66
2023/12/16 05:55:09;;;;;;;1.45;0.30;;;9.80;96.70;;;;;;6245790;22;20027;-65
2023/12/16 05:57:39;;;;;;;0.90;0.30;;;9.90;96.70;;;;;;6270815;22;20039;-65
2023/12/16 06:00:11;;;;;;;2.53;0.40;;;9.80;96.70;;;;;;6271355;22;20027;-65
2023/12/16 06:02:39;;;;;;;1.33;0.40;;;9.80;96.70;;;;;;6245859;22;20016;-65
2023/12/16 06:05:08;;;;;;;2.13;0.40;;;9.80;96.70;;;;;;6272714;22;20012;-65
2023/12/16 06:07:37;;;;;;;1.88;0.40;;;9.80;96.70;;;;;;6272640;22;20019;-67
2023/12/16 06:10:09;;;;;;;1.52;0.30;;;9.80;96.70;;;;;;6271083;22;20026;-66
2023/12/16 06:12:37;;;;;;;2.15;0.57;;;9.80;96.70;;;;;;6245033;22;20019;-66
2023/12/16 06:15:08;;;;;;;1.77;0.30;;;9.70;96.70;;;;;;6271972;22;20012;-65
2023/12/16 06:17:39;;;;;;;0.63;0.28;;;9.70;96.70;;;;;;6270301;22;20123;-66
2023/12/16 06:20:09;;;;;;;1.30;0.35;;;9.80;96.70;;;;;;6270305;22;20050;-66
2023/12/16 06:22:38;;;;;;;1.10;0.30;;;9.80;96.70;;;;;;6245754;22;20024;-65
2023/12/16 06:25:07;;;;;;;0.73;0.30;;;9.80;96.70;;;;;;6270750;22;20050;-66
2023/12/16 06:27:37;;;;;;;1.63;0.40;;;9.80;96.70;;;;;;6270548;22;20022;-65
2023/12/16 06:30:24;;;;;;;0.73;0.40;;;9.80;96.70;;;;;;6271719;22;20061;-65
2023/12/16 06:32:58;;;;;;;;;;;9.80;96.70;;;;;;6270363;22;20023;-65
2023/12/16 06:35:27;;;;;;;3.83;0.50;;;9.90;96.70;;;;;;6271434;22;20390;-65
2023/12/16 06:37:56;;;;;;;1.63;0.40;;;9.90;96.70;;;;;;6270200;22;20024;-65
2023/12/16 06:40:27;;;;;;;0.82;0.38;;;9.90;96.70;;;;;;6271417;22;20019;-65
2023/12/16 06:42:56;;;;;;;0.70;0.43;;;9.90;96.70;;;;;;6244908;22;20695;-65
2023/12/16 06:45:25;;;;;;;0.85;0.40;;;9.80;96.70;;;;;;6270485;22;20012;-65
2023/12/16 06:47:58;;;;;;;1.27;0.50;;;9.80;96.70;;;;;;6270343;22;20339;-65
2023/12/16 06:50:28;;;;;;;2.10;0.43;;;9.80;96.70;;;;;;6271793;22;20019;-65
2023/12/16 06:52:57;;;;;;;2.60;0.40;;;9.80;96.70;;;;;;6269804;22;20472;-64
2023/12/16 06:55:26;;;;;;;1.52;0.70;;;9.80;96.70;;;;;;6270490;22;20050;-66
2023/12/16 06:57:57;;;;;;;1.00;0.40;;;9.90;96.70;;;;;;6270583;22;20016;-67
2023/12/16 07:00:26;;;;;;;1.27;0.60;;;9.90;96.70;;;;;;6272762;22;20027;-65
2023/12/16 07:02:57;;;;;;;1.10;0.30;;;9.90;96.70;;;;;;6245188;22;20102;-67
2023/12/16 07:05:30;;;;;;;0.80;0.30;;;9.90;96.70;;;;;;6270424;22;20470;-67
2023/12/16 07:08:00;;;;;;;1.17;0.43;;;10.00;96.70;;;;;;6271238;22;20444;-67
2023/12/16 07:10:30;;;;;;;1.27;0.40;;;10.00;96.70;;;;;;6270762;22;20015;-68
2023/12/16 07:12:59;;;;;;;1.67;0.50;;;10.00;96.70;;;;;;6270048;22;20473;-67
2023/12/16 07:15:28;;;;;;;0.80;0.30;;;10.10;96.70;;;;;;6270667;22;20106;-67
2023/12/16 07:18:00;;;;;;;1.58;0.30;;;10.10;96.70;;;;;;6271219;22;20461;-67
2023/12/16 07:20:30;;;;;;;2.58;0.70;;;10.10;96.70;;;;;;6271603;22;20026;-65
2023/12/16 07:22:59;;;;;;;1.25;0.40;;;10.20;96.70;;;;;;6269286;22;20103;-67
2023/12/16 07:25:28;;;;;;;1.08;0.50;;;10.10;96.70;;;;;;6269425;22;20019;-67
2023/12/16 07:27:57;;;;;;;3.33;0.55;;;10.10;96.70;;;;;;6244719;22;20089;-67
2023/12/16 07:30:26;;;;;;;0.88;0.45;;;10.10;96.70;;;;;;6244735;22;20030;-67
2023/12/16 07:32:56;;;;;;;2.00;0.55;;;10.10;96.70;;;;;;6270062;22;20028;-67
2023/12/16 07:35:27;;;;;;;1.67;0.50;;;10.10;96.70;;;;;;6220802;22;20026;-67
2023/12/16 07:37:59;;;;;;;0.80;0.40;;;10.10;96.70;;;;;;6268401;22;20031;-66
2023/12/16 07:40:29;;;;;;;0.85;0.50;;;10.10;96.70;;;;;;6272052;22;20074;-65
2023/12/16 07:42:58;;;;;;;1.85;1.05;;;10.10;96.70;;;;;;6270099;22;20421;-66
2023/12/16 07:45:28;;;;;;;3.67;0.63;;;10.20;96.70;;;;;;6244874;22;20030;-67
2023/12/16 07:47:57;;;;;;;2.55;0.60;;;10.20;96.70;;;;;;6273708;22;20472;-65
2023/12/16 07:50:30;;;;;;;2.80;0.90;;;10.20;96.70;;;;;;6247051;22;20046;-64
2023/12/16 07:52:59;;;;;;;1.35;0.60;;;10.30;96.70;;;;;;6272995;22;20024;-63
2023/12/16 07:55:29;;;;;;;0.95;0.43;;;10.30;96.70;;;;;;6245397;22;20515;-64
2023/12/16 07:58:00;;;;;;;1.23;0.38;;;10.40;96.70;;;;;;6273393;22;20043;-65
2023/12/16 08:00:29;;;;;;;2.15;0.60;;;10.40;96.70;;;;;;6273166;22;20071;-65
2023/12/16 08:02:59;;;;;;;2.35;0.93;;;10.40;96.70;;;;;;6272828;22;20407;-64
2023/12/16 08:05:32;;;;;;;2.85;0.70;;;10.40;96.70;;;;;;6272826;22;20022;-65
2023/12/16 08:08:02;;;;;;;2.53;0.90;;;10.50;96.70;;;;;;6271413;22;20046;-65
2023/12/16 08:10:31;;;;;;;1.65;0.50;;;10.50;96.70;;;;;;6271588;22;20026;-65
2023/12/16 08:13:00;;;;;;;6.97;1.55;;;10.60;96.70;;;;;;6271789;22;20020;-65
2023/12/16 08:15:29;;;;;;;0.90;0.50;;;10.60;96.70;;;;;;6244813;22;20066;-63
2023/12/16 08:17:58;;;;;;;1.08;0.50;;;10.60;96.70;;;;;;6272342;22;20019;-64
2023/12/16 08:20:28;;;;;;;1.20;0.35;;;10.70;96.70;;;;;;6271697;22;20027;-64
2023/12/16 08:23:01;;;;;;;0.70;0.40;;;10.80;96.70;;;;;;6271440;22;20563;-64
2023/12/16 08:25:35;;;;;;;3.08;0.60;;;10.80;96.70;;;;;;6222110;22;20042;-65
2023/12/16 08:28:05;;;;;;;1.80;0.40;;;10.90;96.70;;;;;;6271022;22;20028;-65
2023/12/16 08:30:33;;;;;;;0.80;0.60;;;11.00;96.70;;;;;;6246816;22;20353;-65
2023/12/16 08:33:03;;;;;;;2.08;0.70;;;11.00;96.70;;;;;;6273250;22;20043;-64
2023/12/16 08:35:36;;;;;;;1.92;0.40;;;11.10;96.70;;;;;;6272981;22;20077;-65
2023/12/16 08:38:07;;;;;;;1.63;0.40;;;11.10;96.70;;;;;;6246496;22;20370;-65
2023/12/16 08:40:36;;;;;;;0.65;0.30;;;11.20;96.70;;;;;;6271223;22;20022;-65
2023/12/16 08:43:05;;;;;;;2.58;0.77;;;11.30;96.70;;;;;;6272546;22;20077;-64
2023/12/16 08:45:34;;;;;;;0.57;0.22;;;11.30;96.70;;;;;;6271516;22;20019;-65
2023/12/16 08:48:03;;;;;;;2.58;0.45;;;11.40;96.70;;;;;;6270162;22;20449;-65
2023/12/16 08:50:34;;;;;;;1.50;0.57;;;11.40;96.70;;;;;;6273086;22;20082;-65
2023/12/16 08:53:03;;;;;;;2.20;0.38;;;11.50;96.70;;;;;;6271201;22;20462;-65
2023/12/16 08:55:35;;;;;;;1.05;0.30;;;11.60;96.70;;;;;;6271337;22;20490;-65
2023/12/16 08:58:05;;;;;;;0.65;0.38;;;11.60;96.70;;;;;;6245768;22;20019;-65
2023/12/16 09:00:35;;;;;;;1.70;0.40;;;11.70;96.70;;;;;;6270850;22;20094;-65
2023/12/16 09:03:04;;;;;;;0.40;0.30;;;11.70;96.70;;;;;;6271425;22;20034;-65
2023/12/16 09:05:36;;;;;;;0.77;0.45;;;11.80;96.70;;;;;;6272573;22;20017;-64
2023/12/16 09:08:05;;;;;;;1.35;0.30;;;11.80;96.70;;;;;;6271079;22;20051;-65
2023/12/16 09:10:36;;;;;;;1.48;0.38;;;11.90;96.70;;;;;;6272857;22;20028;-65
2023/12/16 09:13:05;;;;;;;1.17;0.40;;;11.90;96.70;;;;;;6270604;22;20015;-64
2023/12/16 09:15:34;;;;;;;2.90;0.65;;;12.00;96.70;;;;;;6272489;22;20039;-65
2023/12/16 09:18:03;;;;;;;1.65;0.45;;;12.00;96.70;;;;;;6269961;22;20505;-65
2023/12/16 09:20:34;;;;;;;0.55;0.30;;;12.10;96.70;;;;;;6272195;22;20047;-65
2023/12/16 09:23:02;;;;;;;0.47;0.20;;;12.10;96.70;;;;;;6270902;22;20046;-65
2023/12/16 09:25:31;;;;;;;0.90;0.30;;;12.10;96.70;;;;;;6270885;22;20024;-65
2023/12/16 09:28:04;;;;;;;1.02;0.30;;;12.10;96.70;;;;;;6272312;22;20058;-64
2023/12/16 09:30:33;;;;;;;1.80;0.30;;;12.20;96.70;;;;;;6245202;22;20525;-64
2023/12/16 09:33:04;;;;;;;1.92;0.57;;;12.30;96.70;;;;;;6270520;22;20020;-64
2023/12/16 09:35:33;;;;;;;1.67;0.30;;;12.30;96.70;;;;;;6272287;22;20074;-65
2023/12/16 09:38:02;;;;;;;1.63;0.40;;;12.40;96.70;;;;;;6272601;22;20369;-64
2023/12/16 09:40:34;;;;;;;2.38;0.40;;;12.40;96.70;;;;;;6272462;22;20566;-65
2023/12/16 09:43:15;;;;;;;2.22;0.50;;;12.50;96.70;;;;;;6270106;22;20256;-65
2023/12/16 09:45:48;;;;;;;0.45;0.30;;;12.50;96.70;;;;;;6271245;22;20012;-64
2023/12/16 09:48:17;;;;;;;1.60;0.52;;;12.50;96.70;;;;;;6272223;22;20023;-64
2023/12/16 09:50:48;;;;;;;1.85;0.55;;;12.50;96.70;;;;;;6245464;22;20023;-63
2023/12/16 09:53:17;;;;;;;1.40;0.30;;;12.60;96.70;;;;;;6245793;22;20028;-64
2023/12/16 09:55:48;;;;;;;1.00;0.40;;;12.60;96.70;;;;;;6272866;22;20016;-64
2023/12/16 09:58:23;;;;;;;1.58;0.30;;;12.60;96.70;;;;;;6245045;22;20103;-64
2023/12/16 10:00:56;;;;;;;1.75;0.30;;;12.70;96.70;;;;;;6244547;22;20024;-64
2023/12/16 10:03:28;;;;;;;2.75;1.00;;;12.70;96.70;;;;;;6237806;23;20558;-65
2023/12/16 10:06:00;;;;;;;2.08;0.32;;;12.70;96.70;;;;;;6238228;23;20071;-66
2023/12/16 10:08:31;;;;;;;1.58;0.70;;;12.80;96.70;;;;;;6213804;23;20030;-66
2023/12/16 10:11:02;;;;;;;1.20;0.50;;;12.80;96.70;;;;;;6212953;23;20020;-64
2023/12/16 10:14:00;;;;;;;5.28;1.55;;;12.80;96.70;;;;;;6215092;23;20058;-65
2023/12/16 10:16:29;;;;;;;1.80;0.55;;;12.90;96.70;;;;;;6212385;23;20095;-65
2023/12/16 10:18:59;;;;;;;3.20;1.73;;;12.90;96.70;;;;;;6238066;23;20062;-65
2023/12/16 10:21:30;;;;;;;1.58;1.13;;;12.90;96.70;;;;;;6237903;23;20062;-64
2023/12/16 10:24:01;;;;;;;2.10;0.50;;;13.00;96.70;;;;;;6237569;23;20050;-64
2023/12/16 10:26:33;;;;;;;2.90;0.50;;;13.00;96.70;;;;;;6187681;23;20016;-65
2023/12/16 10:29:05;;;;;;;1.10;0.60;;;13.10;96.70;;;;;;6213117;23;20107;-66
2023/12/16 10:31:35;;;;;;;1.85;0.50;;;13.10;96.70;;;;;;6236699;23;20366;-64
2023/12/16 10:34:05;;;;;;;1.90;0.40;;;13.10;96.70;;;;;;6223878;22;20030;-66
2023/12/16 10:36:34;;;;;;;3.80;0.50;;;13.10;96.70;;;;;;6244656;22;20408;-66
2023/12/16 10:39:04;;;;;;;1.83;0.40;;;13.20;96.70;;;;;;6245670;22;20020;-65
2023/12/16 10:41:32;;;;;;;1.45;0.60;;;13.20;96.70;;;;;;6271476;22;20030;-66
2023/12/16 10:44:02;;;;;;;1.50;0.40;;;13.20;96.70;;;;;;6271416;22;20111;-64
2023/12/16 10:46:38;;;;;;;1.77;0.50;;;13.20;96.70;;;;;;6271038;22;20012;-64
2023/12/16 10:49:09;;;;;;;1.38;0.38;;;13.20;96.70;;;;;;6271172;22;20019;-64
2023/12/16 10:51:44;;;;;;;0.80;0.30;;;13.20;96.70;;;;;;6219498;22;20024;-65
2023/12/16 10:54:23;;;;;;;0.60;0.30;;;13.20;96.70;;;;;;6244598;22;20359;-64
2023/12/16 10:57:00;;;;;;;1.40;0.47;;;13.30;96.70;;;;;;6271473;22;20022;-66
2023/12/16 10:59:35;;;;;;;1.92;0.45;;;13.30;96.70;;;;;;6244507;22;20057;-63
2023/12/16 11:02:16;;;;;;;1.05;0.35;;;13.30;96.70;;;;;;6244757;22;20012;-63
2023/12/16 11:04:51;;;;;;;1.65;0.50;;;13.30;96.70;;;;;;6271498;22;20030;-64
2023/12/16 11:07:22;;;;;;;2.22;0.40;;;13.40;96.70;;;;;;6271591;22;20016;-65
2023/12/16 11:09:52;;;;;;;1.15;0.65;;;13.40;96.70;;;;;;6219357;22;20015;-64
2023/12/16 11:12:22;;;;;;;1.00;0.40;;;13.50;96.70;;;;;;6245257;22;20073;-64
2023/12/16 11:14:55;;;;;;;0.77;0.30;;;13.50;96.70;;;;;;6218841;22;20085;-63
2023/12/16 11:17:31;;;;;;;1.45;0.30;;;13.50;96.70;;;;;;6244702;22;20029;-58
2023/12/16 11:20:02;;;;;;;1.30;0.40;;;13.50;96.70;;;;;;6271804;22;20454;-63
2023/12/16 11:22:32;;;;;;;0.47;0.30;;;13.60;96.70;;;;;;6243902;22;20436;-64
2023/12/16 11:25:01;;;;;;;0.70;0.30;;;13.60;96.70;;;;;;6270801;22;20057;-63
2023/12/16 11:27:31;;;;;;;1.23;0.50;;;13.70;96.70;;;;;;6271101;22;20023;-64
2023/12/16 11:30:02;;;;;;;1.23;0.38;;;13.80;96.70;;;;;;6271334;22;20027;-62
2023/12/16 11:32:37;;;;;;;0.82;0.32;;;13.80;96.70;;;;;;6271224;22;20039;-63
2023/12/16 11:35:06;;;;;;;0.98;0.30;;;13.90;96.70;;;;;;6244083;22;20016;-63
2023/12/16 11:37:43;;;;;;;1.45;0.40;;;14.00;96.70;;;;;;6219811;22;20070;-63
2023/12/16 11:40:41;;;;;;;0.82;0.30;;;14.00;96.70;;;;;;6271373;22;20020;-64
2023/12/16 11:43:12;;;;;;;0.85;0.22;;;14.10;96.70;;;;;;6244166;22;20043;-64
2023/12/16 11:45:42;;;;;;;0.85;0.40;;;14.30;96.70;;;;;;6244718;22;20019;-64
2023/12/16 11:48:15;;;;;;;1.40;0.30;;;14.30;96.70;;;;;;6271378;22;20039;-63
2023/12/16 11:50:46;;;;;;;0.70;0.40;;;14.30;96.70;;;;;;6245205;22;20019;-64
2023/12/16 11:53:17;;;;;;;1.52;0.20;;;14.30;96.70;;;;;;6219213;22;20478;-62
2023/12/16 11:55:47;;;;;;;0.95;0.32;;;14.30;96.70;;;;;;6256105;22;20611;-63
2023/12/16 11:58:18;;;;;;;1.40;0.40;;;14.40;96.70;;;;;;6211856;23;20099;-63
2023/12/16 12:00:48;;;;;;;2.42;0.40;;;14.40;96.70;;;;;;6212442;23;20047;-63
2023/12/16 12:03:22;;;;;;;0.68;0.30;;;14.50;96.70;;;;;;6212726;23;20103;-63
2023/12/16 12:05:50;;;;;;;1.10;0.10;;;14.50;96.70;;;;;;6232873;23;20118;-63
2023/12/16 12:08:20;;;;;;;1.23;0.40;;;14.50;96.70;;;;;;6212063;23;20024;-62
2023/12/16 12:10:51;;;;;;;0.57;0.30;;;14.50;96.70;;;;;;6213336;23;20035;-63
2023/12/16 12:13:20;;;;;;;1.30;0.38;;;14.50;96.70;;;;;;6236993;23;20451;-63
2023/12/16 12:15:50;;;;;;;0.63;0.20;;;14.50;96.70;;;;;;6237165;23;20020;-63
2023/12/16 12:18:20;;;;;;;2.03;0.30;;;14.50;96.70;;;;;;6211878;23;20072;-63
2023/12/16 12:20:49;;;;;;;0.50;0.30;;;14.50;96.70;;;;;;6211917;23;20207;-63
2023/12/16 12:23:18;;;;;;;0.70;0.32;;;14.60;96.70;;;;;;6237211;23;20031;-61
2023/12/16 12:25:55;;;;;;;0.85;0.40;;;14.60;96.70;;;;;;6236980;23;20024;-63
2023/12/16 12:28:23;;;;;;;;;;;14.60;96.70;;;;;;6215854;22;20020;-63
2023/12/16 12:31:04;;;;;;;0.98;0.35;;;14.70;96.70;;;;;;6244675;22;19923;-63
2023/12/16 12:33:36;;;;;;;1.42;0.40;;;14.60;96.70;;;;;;6270481;22;20048;-62
2023/12/16 12:36:10;;;;;;;1.00;0.40;;;14.70;96.70;;;;;;6271746;22;20442;-62
2023/12/16 12:38:39;;;;;;;1.15;0.20;;;14.70;96.70;;;;;;6272944;22;20020;-63
2023/12/16 12:41:09;;;;;;;1.65;0.28;;;14.70;96.70;;;;;;6273380;22;20031;-64
2023/12/16 12:43:37;;;;;;;1.27;0.57;;;14.70;96.70;;;;;;6271308;22;20039;-64
2023/12/16 12:46:08;;;;;;;1.55;0.65;;;14.70;96.70;;;;;;6272347;22;20036;-65
2023/12/16 12:48:40;;;;;;;0.90;0.40;;;14.80;96.70;;;;;;6246012;22;20028;-65
2023/12/16 12:51:11;;;;;;;2.00;0.50;;;14.70;96.70;;;;;;6271090;22;20027;-64
2023/12/16 12:53:40;;;;;;;0.40;0.30;;;14.70;96.70;;;;;;6272939;22;20024;-64
2023/12/16 12:56:09;;;;;;;0.82;0.50;;;14.80;96.70;;;;;;6245615;22;20042;-64
2023/12/16 12:58:38;;;;;;;0.63;0.40;;;14.80;96.70;;;;;;6270456;22;20443;-63
2023/12/16 13:01:11;;;;;;;1.00;0.30;;;14.70;96.70;;;;;;6272190;22;20020;-63
2023/12/16 13:03:48;;;;;;;0.70;0.65;;;14.70;96.70;;;;;;6271294;22;20026;-63
2023/12/16 13:06:18;;;;;;;0.30;0.30;;;14.70;96.70;;;;;;6272701;22;20030;-64
2023/12/16 13:08:48;;;;;;;1.27;0.43;;;14.70;96.70;;;;;;6245722;22;20028;-64